Flight Track Log - Related Links

Times and Time Zones

All times are in EDT time to prevent confusion due to time zone crossing. See the VNR164 flight status page for this flight to view local times or setup timezone preferences in your user account.

Time Position Orientation Groundspeed Altitude Reporting Facility
EDT Latitude Longitude Course Direction KTS MPH feet Rate Location/Type
Sun 07:33:40 AM 28.6833 -81.0833 164° South 256 295 3,500  Level Orlando TRACON
Sun 07:34:22 AM 28.6333 -81.0667 164° South 254 292 3,500  Level Orlando TRACON
Sun 07:35:22 AM 28.5667 -81.0333 156° South 256 295 3,500  Level Orlando TRACON
Sun 07:36:40 AM 28.4833 -80.9833 152° Southeast 260 299 3,500  Level Orlando TRACON
Sun 07:37:40 AM 28.4167 -80.9500 156° South 261 300 3,500  Level Orlando TRACON
Sun 07:38:22 AM 28.3667 -80.9333 164° South 260 299 3,500  Level Orlando TRACON
Sun 07:39:46 AM 28.2667 -80.8833 156° South 260 299 3,500  Level Orlando TRACON
Sun 07:40:29 AM 28.2333 -80.8667 156° South 260 299 3,500  Level Orlando TRACON
Sun 07:41:34 AM 28.1500 -80.8167 152° Southeast 257 296 3,500  Level Orlando TRACON
Sun 07:43:09 AM 28.0531 -80.7739 159° South 271 312 3,500  Level Miami Center
Sun 07:44:09 AM 27.9894 -80.7411 156° South 265 305 3,500  Level Miami Center
Sun 07:45:09 AM 27.9236 -80.7061 155° Southeast 259 298 3,500  Level Miami Center
Sun 07:46:09 AM 27.8636 -80.6783 158° South 259 298 3,500  Level Miami Center
Sun 07:47:09 AM 27.8000 -80.6456 155° Southeast 254 292 3,500  Level Miami Center
Sun 07:48:09 AM 27.7278 -80.6103 157° South 254 292 3,500  Level Miami Center
Sun 07:49:09 AM 27.6639 -80.5753 154° Southeast 254 292 3,500  Level Miami Center
Sun 07:50:09 AM 27.5981 -80.5453 158° South 254 292 3,500  Level Miami Center
Sun 07:51:09 AM 27.5403 -80.5153 155° Southeast 254 292 3,500  Level Miami Center
Sun 07:52:09 AM 27.4742 -80.4850 158° South 254 292 3,500 50 Level Miami Center
Sun 07:53:09 AM 27.4019 -80.4522 158° South 249 287 3,600 50 Climbing Miami Center
Sun 07:54:09 AM 27.3358 -80.4222 158° South 249 287 3,600  Level Miami Center
Sun 07:55:09 AM 27.2678 -80.3944 160° South 254 292 3,600  Level Miami Center
Sun 07:56:09 AM 27.2097 -80.3692 159° South 254 292 3,600  Level Miami Center
Sun 07:57:09 AM 27.1356 -80.3367 159° South 254 292 3,600  Level Miami Center
Sun 07:58:09 AM 27.0694 -80.3067 158° South 254 292 3,600 -50 Level Miami Center
Sun 07:59:09 AM 27.0033 -80.2767 158° South 249 287 3,500 -50 Descending Miami Center
Sun 08:00:09 AM 26.9453 -80.2542 161° South 249 287 3,500  Level Miami Center
Sun 08:01:09 AM 26.8792 -80.2242 158° South 249 287 3,500  Level Miami Center
Sun 08:03:00 AM 26.7877 -80.1641 160° South  Level Estimated
Sun 08:10:00 AM 26.6832 -80.0956 160° South  Level Estimated
Sun 08:11:00 AM 26.6832 -80.0956 160° South  Level Estimated
Sun 08:12:00 AM 26.6832 -80.0956 160° South  Level Estimated
Sun 08:13:00 AM 26.6832 -80.0956 160° South  Level Estimated
Sun 08:14:00 AM 26.6832 -80.0956 160° South  Level Estimated

Login

Don't have an account? Register now (free) for customized features, flight alerts, and more!